| time (UTC) | temp F | wind direction | speed knots | gust knots | rain 1hr in | rain 24hr in | rain mn in | humidity % | barometer mb |
| 20260510060704 | 69 | 106 | 0.0 | 0.0 | 0.00 | 0.04 | 0.00 | 90 | 1012.4 |
| 20260510060204 | 69 | 106 | 0.0 | 0.0 | 0.00 | 0.04 | 0.00 | 89 | 1012.4 |
| 20260510053703 | 71 | 106 | 0.0 | 0.9 | 0.00 | 0.04 | 0.00 | 88 | 1012.4 |
| 20260510053204 | 71 | 106 | 0.0 | 0.9 | 0.00 | 0.04 | 0.00 | 88 | 1012.4 |
| 20260510050705 | 70 | 106 | 0.0 | 0.0 | 0.00 | 0.04 | 0.00 | 90 | 1012.3 |
| 20260510050204 | 70 | 106 | 0.0 | 0.9 | 0.00 | 0.04 | 0.00 | 90 | 1012.3 |
| 20260510043704 | 70 | 106 | 0.0 | 0.0 | 0.00 | 0.04 | 0.04 | 89 | 1012.1 |
| 20260510043204 | 70 | 106 | 0.0 | 0.0 | 0.00 | 0.04 | 0.04 | 89 | 1012.1 |
| 20260510040703 | 71 | 106 | 0.0 | 0.0 | 0.00 | 0.04 | 0.04 | 88 | 1011.9 |
| 20260510040204 | 71 | 106 | 0.0 | 0.9 | 0.00 | 0.04 | 0.04 | 88 | 1011.9 |
| 20260510033203 | 73 | 106 | 0.0 | 0.0 | 0.00 | 0.04 | 0.04 | 84 | 1011.8 |
| 20260510030704 | 74 | 106 | 0.0 | 0.0 | 0.00 | 0.04 | 0.04 | 80 | 1011.5 |
| 20260510030203 | 74 | 106 | 0.0 | 0.9 | 0.00 | 0.04 | 0.04 | 81 | 1011.4 |
| 20260510023704 | 73 | 106 | 0.0 | 0.0 | 0.00 | 0.04 | 0.04 | 80 | 1011.1 |
| 20260510023204 | 74 | 106 | 0.0 | 0.0 | 0.00 | 0.04 | 0.04 | 79 | 1011.1 |
| 20260510020703 | 76 | 106 | 0.0 | 0.0 | 0.00 | 0.04 | 0.04 | 75 | 1010.9 |
| 20260510020204 | 77 | 106 | 0.0 | 0.9 | 0.00 | 0.04 | 0.04 | 73 | 1010.8 |
| 20260510013704 | 79 | 148 | 0.0 | 2.6 | 0.00 | 0.04 | 0.04 | 70 | 1010.5 |
| 20260510010704 | 81 | 94 | 0.9 | 2.6 | 0.00 | 0.04 | 0.04 | 66 | 1010.2 |
| 20260510010204 | 81 | 123 | 0.9 | 6.1 | 0.00 | 0.04 | 0.04 | 64 | 1010.1 |
| 20260510003704 | 83 | 86 | 1.7 | 2.6 | 0.00 | 0.04 | 0.04 | 51 | 1009.9 |
| 20260510003204 | 84 | 92 | 0.9 | 2.6 | 0.00 | 0.04 | 0.04 | 50 | 1009.8 |
| 20260510000703 | 85 | 97 | 0.9 | 1.7 | 0.00 | 0.04 | 0.04 | 48 | 1009.5 |
| 20260510000204 | 85 | 143 | 0.0 | 4.3 | 0.00 | 0.04 | 0.04 | 47 | 1009.5 |
| 20260509233704 | 87 | 115 | 1.7 | 2.6 | 0.00 | 0.04 | 0.04 | 46 | 1009.4 |
| 20260509233204 | 87 | 140 | 0.9 | 5.2 | 0.00 | 0.04 | 0.04 | 47 | 1009.4 |
| 20260509230703 | 87 | 105 | 1.7 | 5.2 | 0.00 | 0.04 | 0.04 | 46 | 1009.2 |
| 20260509223704 | 86 | 117 | 4.3 | 7.8 | 0.00 | 0.04 | 0.04 | 52 | 1009.3 |
| 20260509223203 | 86 | 147 | 4.3 | 10.4 | 0.00 | 0.04 | 0.04 | 56 | 1009.3 |
| 20260509220704 | 87 | 128 | 2.6 | 7.8 | 0.00 | 0.04 | 0.04 | 53 | 1009.2 |
| 20260509220204 | 87 | 146 | 1.7 | 7.0 | 0.00 | 0.04 | 0.04 | 53 | 1009.0 |
| 20260509213704 | 83 | 117 | 2.6 | 6.1 | 0.00 | 0.04 | 0.04 | 57 | 1009.4 |
| 20260509213203 | 84 | 126 | 2.6 | 12.2 | 0.00 | 0.04 | 0.04 | 55 | 1009.5 |
| 20260509210703 | 91 | 0 | 2.6 | 7.0 | 0.00 | 0.04 | 0.04 | 44 | 1009.4 |
| 20260509210203 | 91 | 251 | 2.6 | 6.1 | 0.00 | 0.04 | 0.04 | 46 | 1009.4 |
| 20260509203704 | 88 | 30 | 0.9 | 2.6 | 0.00 | 0.04 | 0.04 | 53 | 1009.8 |
| 20260509203203 | 89 | 252 | 0.9 | 8.7 | 0.00 | 0.04 | 0.04 | 50 | 1009.9 |
| 20260509200704 | 88 | 257 | 0.9 | 2.6 | 0.00 | 0.04 | 0.04 | 53 | 1010.1 |
| 20260509200203 | 87 | 284 | 1.7 | 7.0 | 0.00 | 0.04 | 0.04 | 55 | 1010.4 |
| 20260509193703 | 87 | 236 | 2.6 | 7.8 | 0.00 | 0.04 | 0.04 | 58 | 1010.8 |
| 20260509193204 | 86 | 322 | 0.0 | 5.2 | 0.00 | 0.04 | 0.04 | 55 | 1010.7 |
| 20260509190703 | 87 | 146 | 0.9 | 4.3 | 0.00 | 0.04 | 0.04 | 58 | 1011.0 |
| 20260509190203 | 87 | 218 | 1.7 | 7.8 | 0.00 | 0.04 | 0.04 | 60 | 1011.3 |
| 20260509183204 | 87 | 245 | 2.6 | 6.1 | 0.00 | 0.04 | 0.04 | 61 | 1011.7 |
| 20260509180704 | 85 | 207 | 1.7 | 6.1 | 0.00 | 0.04 | 0.04 | 66 | 1011.9 |
| 20260509180204 | 86 | 174 | 2.6 | 7.0 | 0.00 | 0.04 | 0.04 | 66 | 1012.0 |
| 20260509173704 | 84 | 174 | 1.7 | 6.1 | 0.00 | 0.04 | 0.04 | 73 | 1012.2 |
| 20260509173203 | 83 | 215 | 1.7 | 7.8 | 0.00 | 0.04 | 0.04 | 71 | 1012.2 |
| 20260509170704 | 82 | 198 | 2.6 | 6.1 | 0.00 | 0.04 | 0.04 | 75 | 1012.5 |
| 20260509170204 | 81 | 197 | 4.3 | 6.1 | 0.00 | 0.04 | 0.04 | 76 | 1012.5 |
| 20260509163704 | 80 | 230 | 2.6 | 6.1 | 0.00 | 0.04 | 0.04 | 79 | 1012.6 |
| 20260509163204 | 80 | 196 | 3.5 | 8.7 | 0.00 | 0.04 | 0.04 | 80 | 1012.6 |
| 20260509160704 | 78 | 255 | 2.6 | 4.3 | 0.00 | 0.04 | 0.04 | 84 | 1012.7 |
| 20260509160203 | 78 | 204 | 3.5 | 7.8 | 0.00 | 0.04 | 0.04 | 85 | 1012.6 |
| 20260509153703 | 75 | 223 | 1.7 | 4.3 | 0.00 | 0.04 | 0.04 | 92 | 1012.8 |
| 20260509150704 | 73 | 100 | 1.7 | 4.3 | 0.00 | 0.04 | 0.04 | 96 | 1012.9 |
| 20260509150204 | 73 | 157 | 1.7 | 7.0 | 0.00 | 0.04 | 0.04 | 96 | 1012.8 |
| 20260509143704 | 72 | 166 | 1.7 | 4.3 | 0.00 | 0.04 | 0.04 | 96 | 1012.5 |
| 20260509143204 | 72 | 140 | 2.6 | 7.8 | 0.00 | 0.04 | 0.04 | 96 | 1012.3 |
| 20260509140704 | 71 | 20 | 0.0 | 0.0 | 0.00 | 0.04 | 0.04 | 96 | 1012.3 |
| 20260509140204 | 71 | 20 | 0.0 | 0.9 | 0.00 | 0.04 | 0.04 | 96 | 1012.4 |
| 20260509133704 | 71 | 135 | 0.0 | 0.9 | 0.00 | 0.04 | 0.04 | 96 | 1012.4 |
| 20260509133204 | 71 | 135 | 0.0 | 1.7 | 0.00 | 0.04 | 0.04 | 96 | 1012.4 |
| 20260509130704 | 71 | 110 | 0.0 | 0.9 | 0.00 | 0.04 | 0.04 | 96 | 1012.3 |
| 20260509130204 | 71 | 158 | 0.0 | 1.7 | 0.00 | 0.04 | 0.04 | 96 | 1012.2 |
| 20260509123704 | 71 | 113 | 0.0 | 1.7 | 0.00 | 0.04 | 0.04 | 96 | 1012.0 |
| 20260509123203 | 71 | 121 | 1.7 | 2.6 | 0.00 | 0.04 | 0.04 | 96 | 1011.9 |
| 20260509120704 | 71 | 336 | 1.7 | 4.3 | 0.00 | 0.04 | 0.04 | 96 | 1011.8 |
| 20260509120204 | 71 | 327 | 1.7 | 2.6 | 0.00 | 0.04 | 0.04 | 96 | 1011.9 |
| 20260509113704 | 71 | 321 | 0.0 | 1.7 | 0.00 | 0.04 | 0.04 | 96 | 1012.4 |
| 20260509113203 | 71 | 342 | 1.7 | 2.6 | 0.00 | 0.04 | 0.04 | 96 | 1012.6 |
| 20260509110703 | 71 | 15 | 0.0 | 1.7 | 0.00 | 0.04 | 0.04 | 96 | 1012.8 |
| 20260509110204 | 71 | 36 | 0.0 | 2.6 | 0.00 | 0.04 | 0.04 | 96 | 1012.8 |
| 20260509103703 | 71 | 56 | 0.0 | 0.9 | 0.01 | 0.04 | 0.04 | 96 | 1012.2 |
| 20260509103203 | 71 | 56 | 0.9 | 1.7 | 0.01 | 0.04 | 0.04 | 96 | 1012.1 |
| 20260509100703 | 71 | 91 | 0.9 | 2.6 | 0.03 | 0.04 | 0.04 | 95 | 1011.8 |
| 20260509100205 | 71 | 66 | 0.0 | 0.9 | 0.04 | 0.04 | 0.04 | 95 | 1011.8 |
| 20260509093703 | 71 | 355 | 0.0 | 0.0 | 0.03 | 0.03 | 0.03 | 95 | 1011.3 |
| 20260509093203 | 71 | 355 | 0.0 | 1.7 | 0.03 | 0.03 | 0.03 | 95 | 1011.3 |
| 20260509090704 | 71 | 24 | 0.9 | 1.7 | 0.01 | 0.01 | 0.01 | 95 | 1011.4 |
| 20260509090203 | 71 | 355 | 0.0 | 0.9 | 0.00 | 0.00 | 0.00 | 95 | 1011.4 |
| 20260509083704 | 71 | 181 | 0.0 | 0.0 | 0.00 | 0.00 | 0.00 | 95 | 1011.4 |
| 20260509080704 | 72 | 181 | 0.0 | 1.7 | 0.00 | 0.00 | 0.00 | 94 | 1011.4 |
| 20260509080204 | 72 | 141 | 1.7 | 5.2 | 0.00 | 0.00 | 0.00 | 94 | 1011.2 |
| 20260509073704 | 72 | 143 | 0.9 | 2.6 | 0.00 | 0.00 | 0.00 | 94 | 1011.2 |
| 20260509073203 | 72 | 147 | 2.6 | 4.3 | 0.00 | 0.00 | 0.00 | 94 | 1011.2 |
| 20260509070704 | 72 | 150 | 0.0 | 0.0 | 0.00 | 0.00 | 0.00 | 93 | 1011.6 |
| 20260509070203 | 72 | 150 | 0.0 | 2.6 | 0.00 | 0.00 | 0.00 | 93 | 1011.5 |
| 20260509063704 | 72 | 173 | 1.7 | 2.6 | 0.00 | 0.00 | 0.00 | 93 | 1011.3 |
| 20260509063204 | 72 | 172 | 2.6 | 7.0 | 0.00 | 0.00 | 0.00 | 93 | 1011.2 |